createdAt,value
2017-09-23T00:02:54.475Z,71.20
2017-09-23T00:07:58.669Z,70.41
2017-09-23T00:13:02.615Z,70.37
2017-09-23T00:18:08.005Z,70.57
2017-09-23T00:23:13.859Z,70.58
2017-09-23T00:28:20.472Z,71.21
2017-09-23T00:33:29.200Z,70.85
2017-09-23T00:38:32.970Z,70.58
2017-09-23T00:43:41.400Z,70.30
2017-09-23T00:48:45.458Z,69.86
2017-09-23T00:53:54.771Z,69.72
2017-09-23T00:58:57.494Z,69.83
2017-09-23T01:03:59.932Z,69.94
2017-09-23T01:09:08.327Z,69.89
2017-09-23T01:14:11.550Z,70.14
2017-09-23T01:19:15.754Z,70.07
2017-09-23T01:24:19.464Z,70.06
2017-09-23T01:29:22.028Z,70.24
2017-09-23T01:34:25.377Z,70.37
2017-09-23T01:39:27.992Z,70.50
2017-09-23T01:44:35.518Z,70.34
2017-09-23T01:49:43.730Z,70.68
2017-09-23T01:54:47.360Z,70.92
2017-09-23T01:59:54.238Z,72.08
2017-09-23T02:05:02.101Z,72.24
2017-09-23T02:10:04.899Z,72.21
2017-09-23T02:15:08.604Z,71.47
2017-09-23T02:20:15.628Z,71.37
2017-09-23T02:25:20.588Z,71.90
2017-09-23T02:30:28.398Z,71.54
2017-09-23T02:35:36.644Z,71.46
2017-09-23T02:40:39.899Z,71.24
2017-09-23T02:45:42.521Z,71.15
2017-09-23T02:50:45.231Z,71.16
2017-09-23T02:55:48.309Z,71.12
2017-09-23T03:00:51.355Z,71.18
2017-09-23T03:05:54.342Z,71.31
2017-09-23T03:10:56.928Z,71.43
2017-09-23T03:15:59.476Z,71.36
2017-09-23T03:21:01.495Z,71.60
2017-09-23T03:26:04.887Z,71.75
2017-09-23T03:31:07.316Z,71.73
2017-09-23T03:36:09.313Z,71.74
2017-09-23T03:41:11.926Z,71.78
2017-09-23T03:46:14.339Z,71.69
2017-09-23T03:51:16.933Z,71.40
2017-09-23T03:56:19.599Z,71.42
2017-09-23T04:01:25.848Z,72.16
2017-09-23T04:06:33.631Z,72.82
2017-09-23T04:11:37.360Z,72.94
2017-09-23T04:16:42.419Z,72.41
2017-09-23T04:21:45.609Z,72.08
2017-09-23T04:26:48.127Z,71.77
2017-09-23T04:31:50.607Z,71.51
2017-09-23T04:36:53.334Z,72.04
2017-09-23T04:41:55.986Z,72.35
2017-09-23T04:46:58.964Z,72.35
2017-09-23T04:52:02.210Z,72.49
2017-09-23T04:57:04.916Z,72.86
2017-09-23T05:02:07.077Z,72.97
2017-09-23T05:07:09.308Z,72.91
2017-09-23T05:12:12.003Z,72.77
2017-09-23T05:17:14.668Z,72.67
2017-09-23T05:22:17.241Z,72.75
2017-09-23T05:27:19.777Z,72.95
2017-09-23T05:32:21.754Z,72.78
2017-09-23T05:37:24.302Z,72.57
2017-09-23T05:42:27.636Z,72.88
2017-09-23T05:47:30.342Z,72.88
2017-09-23T05:52:32.813Z,72.84
2017-09-23T05:57:35.425Z,72.87
2017-09-23T06:02:38.039Z,72.75
2017-09-23T06:07:39.931Z,72.61
2017-09-23T06:12:42.597Z,72.94
2017-09-23T06:17:45.351Z,72.89
2017-09-23T06:22:47.332Z,72.65
2017-09-23T06:27:49.253Z,72.28
2017-09-23T06:32:51.174Z,72.14
2017-09-23T06:37:53.072Z,71.87
2017-09-23T06:42:54.975Z,71.42
2017-09-23T06:47:57.007Z,71.10
2017-09-23T06:52:58.954Z,71.04
2017-09-23T06:58:00.832Z,71.17
2017-09-23T07:03:02.830Z,71.04
2017-09-23T07:08:04.733Z,72.07
2017-09-23T07:13:07.391Z,72.13
2017-09-23T07:18:09.354Z,72.30
2017-09-23T07:23:12.090Z,71.81
2017-09-23T07:28:14.909Z,71.26
2017-09-23T07:33:16.809Z,70.89
2017-09-23T07:38:18.693Z,70.85
2017-09-23T07:43:20.629Z,71.06
2017-09-23T07:48:23.250Z,70.75
2017-09-23T07:53:25.242Z,70.51
2017-09-23T07:58:27.275Z,70.27
2017-09-23T08:03:29.945Z,70.01
2017-09-23T08:08:32.607Z,69.51
2017-09-23T08:13:35.329Z,69.36
2017-09-23T08:18:37.256Z,69.32
2017-09-23T08:23:39.132Z,69.59
2017-09-23T08:28:41.032Z,69.53
2017-09-23T08:33:42.965Z,69.85
2017-09-23T08:38:45.599Z,70.76
2017-09-23T08:43:47.486Z,69.12
2017-09-23T08:48:49.372Z,68.21
2017-09-23T08:53:51.278Z,68.06
2017-09-23T08:58:53.210Z,67.45
2017-09-23T09:03:55.868Z,66.65
2017-09-23T09:08:58.539Z,66.41
2017-09-23T09:14:00.448Z,66.08
2017-09-23T09:19:02.374Z,64.50
2017-09-23T09:24:04.343Z,63.87
2017-09-23T09:29:06.273Z,64.35
2017-09-23T09:34:08.190Z,64.33
2017-09-23T09:39:10.188Z,64.23
2017-09-23T09:44:12.123Z,63.47
2017-09-23T09:49:14.060Z,62.75
2017-09-23T09:54:16.267Z,62.27
2017-09-23T09:59:18.949Z,62.32
2017-09-23T10:04:20.886Z,62.58
2017-09-23T10:09:22.821Z,61.83
2017-09-23T10:14:25.557Z,62.15
2017-09-23T10:19:27.812Z,62.08
2017-09-23T10:24:30.979Z,62.54
2017-09-23T10:29:32.883Z,60.88
2017-09-23T10:34:34.816Z,59.98
2017-09-23T10:39:36.751Z,60.02
2017-09-23T10:44:38.651Z,60.34
2017-09-23T10:49:40.574Z,60.58
2017-09-23T10:54:43.223Z,59.54
2017-09-23T10:59:45.128Z,59.10
2017-09-23T11:04:47.011Z,60.79
2017-09-23T11:09:49.636Z,59.36
2017-09-23T11:14:53.104Z,57.50
2017-09-23T11:19:55.137Z,56.12
2017-09-23T11:24:57.129Z,54.58
2017-09-23T11:29:59.805Z,53.33
2017-09-23T11:35:02.500Z,53.89
2017-09-23T11:40:04.461Z,55.56
2017-09-23T11:45:06.376Z,55.90
2017-09-23T11:50:09.067Z,53.64
2017-09-23T11:55:11.063Z,53.24
2017-09-23T12:00:12.987Z,53.40
2017-09-23T12:05:14.915Z,53.61
2017-09-23T12:10:16.908Z,53.26
2017-09-23T12:15:18.855Z,52.23
2017-09-23T12:20:20.852Z,51.98
2017-09-23T12:25:22.839Z,50.54
2017-09-23T12:30:24.780Z,50.75
2017-09-23T12:35:26.880Z,50.76
2017-09-23T12:40:28.926Z,49.37
2017-09-23T12:45:30.904Z,49.31
2017-09-23T12:50:32.872Z,49.42
2017-09-23T12:55:34.802Z,49.26
2017-09-23T13:00:36.731Z,49.37
2017-09-23T13:05:38.663Z,48.56
2017-09-23T13:10:40.600Z,49.47
2017-09-23T13:15:42.590Z,48.31
2017-09-23T13:20:44.582Z,48.47
2017-09-23T13:25:46.579Z,48.83
2017-09-23T13:30:48.509Z,48.54
2017-09-23T13:35:50.415Z,49.03
2017-09-23T13:40:53.247Z,49.26
2017-09-23T13:45:55.263Z,49.52
2017-09-23T13:50:57.272Z,49.40
2017-09-23T13:55:59.204Z,49.67
2017-09-23T14:01:01.107Z,48.76
2017-09-23T14:06:03.102Z,47.72
2017-09-23T14:11:05.023Z,46.27
2017-09-23T14:16:10.022Z,46.85
2017-09-23T14:21:14.359Z,47.34
2017-09-23T14:26:22.828Z,48.11
2017-09-23T14:31:28.982Z,48.80
2017-09-23T14:36:34.577Z,47.78
2017-09-23T14:41:40.800Z,45.87
2017-09-23T14:46:45.912Z,45.54
2017-09-23T14:51:50.800Z,46.42
2017-09-23T14:56:56.001Z,47.11
2017-09-23T15:02:02.248Z,47.24
2017-09-23T15:07:08.540Z,48.19
2017-09-23T15:12:16.741Z,48.89
2017-09-23T15:17:20.556Z,49.32
2017-09-23T15:22:25.844Z,49.55
2017-09-23T15:27:32.814Z,49.87
2017-09-23T15:32:38.534Z,50.52
2017-09-23T15:37:44.709Z,51.64
2017-09-23T15:42:47.474Z,52.44
2017-09-23T15:47:52.736Z,53.04
2017-09-23T15:52:58.235Z,53.51
2017-09-23T15:58:02.621Z,53.91
2017-09-23T16:03:08.851Z,54.43
2017-09-23T16:08:13.419Z,54.98
2017-09-23T16:13:19.920Z,55.54
2017-09-23T16:18:24.534Z,56.28
2017-09-23T16:23:29.146Z,56.69
2017-09-23T16:28:32.009Z,56.98
2017-09-23T16:33:37.638Z,56.78
2017-09-23T16:38:40.568Z,57.14
2017-09-23T16:43:47.917Z,57.56
2017-09-23T16:48:55.395Z,58.26
2017-09-23T16:54:01.836Z,58.70
2017-09-23T16:59:07.054Z,59.04
2017-09-23T17:04:11.357Z,59.83
2017-09-23T17:09:16.985Z,60.43
2017-09-23T17:14:21.046Z,61.13
2017-09-23T17:19:28.130Z,61.63
2017-09-23T17:24:30.339Z,62.21
2017-09-23T17:29:33.039Z,62.61
2017-09-23T17:34:36.075Z,63.09
2017-09-23T17:39:38.505Z,63.90
2017-09-23T17:44:41.158Z,64.61
2017-09-23T17:49:43.478Z,64.88
2017-09-23T17:54:46.172Z,65.14
2017-09-23T17:59:48.567Z,65.22
2017-09-23T18:04:50.888Z,65.40
2017-09-23T18:09:53.225Z,65.42
2017-09-23T18:14:55.412Z,65.58
2017-09-23T18:19:59.628Z,65.83
2017-09-23T18:25:02.035Z,66.37
2017-09-23T18:30:05.283Z,66.44
2017-09-23T18:35:07.789Z,66.45
2017-09-23T18:40:10.246Z,66.24
2017-09-23T18:45:12.301Z,65.81
2017-09-23T18:55:22.801Z,66.18
2017-09-23T19:00:27.989Z,66.82
2017-09-23T19:05:34.265Z,67.61
2017-09-23T19:10:41.205Z,67.21
2017-09-23T19:15:46.413Z,66.83
2017-09-23T19:20:49.319Z,67.37
2017-09-23T19:25:55.366Z,67.62
2017-09-23T19:31:01.220Z,67.78
2017-09-23T19:36:08.385Z,67.73
2017-09-23T19:41:12.078Z,67.64
2017-09-23T19:46:19.853Z,67.78
2017-09-23T19:51:25.756Z,68.20
2017-09-23T19:56:30.957Z,68.29
2017-09-23T20:01:37.776Z,68.37
2017-09-23T20:06:42.251Z,68.33
2017-09-23T20:11:48.152Z,68.94
2017-09-23T20:16:53.869Z,69.34
2017-09-23T20:22:00.855Z,69.44
2017-09-23T20:27:06.608Z,69.39
2017-09-23T20:32:11.926Z,70.42
2017-09-23T20:37:18.197Z,70.69
2017-09-23T20:42:22.304Z,70.57
2017-09-23T20:47:28.704Z,70.81
2017-09-23T20:52:35.805Z,69.85
2017-09-23T20:57:39.887Z,69.70
2017-09-23T21:02:45.026Z,69.95
2017-09-23T21:07:50.077Z,69.66
2017-09-23T21:12:57.674Z,69.76
2017-09-23T21:18:04.363Z,69.98
2017-09-23T21:23:10.128Z,70.22
2017-09-23T21:28:14.678Z,71.60
2017-09-23T21:33:19.172Z,70.77
2017-09-23T21:38:22.523Z,70.17
2017-09-23T21:43:25.850Z,69.92
2017-09-23T21:48:32.545Z,69.85
2017-09-23T21:53:38.194Z,69.28
2017-09-23T21:58:44.805Z,68.69
2017-09-23T22:03:50.580Z,69.12
2017-09-23T22:08:54.964Z,69.32
2017-09-23T22:13:59.258Z,69.39
2017-09-23T22:19:04.296Z,69.19
2017-09-23T22:24:10.147Z,69.47
2017-09-23T22:29:15.899Z,69.58
2017-09-23T22:34:20.662Z,69.83
2017-09-23T22:39:25.693Z,70.21
2017-09-23T22:44:31.938Z,70.23
2017-09-23T22:49:36.401Z,70.75
2017-09-23T22:54:39.689Z,71.05
2017-09-23T22:59:46.050Z,71.26
2017-09-23T23:04:49.508Z,71.07
2017-09-23T23:09:56.391Z,70.95
2017-09-23T23:15:04.046Z,72.18
2017-09-23T23:20:11.742Z,72.53
2017-09-23T23:25:20.538Z,72.86
2017-09-23T23:30:23.499Z,73.22
2017-09-23T23:35:28.390Z,73.29
2017-09-23T23:40:32.275Z,73.17
2017-09-23T23:45:39.596Z,72.98
2017-09-23T23:50:46.381Z,73.06
2017-09-23T23:55:52.515Z,73.23
